Astatula, Florida
Current Conditions -  °F | °C
As of 3:53 AM on Wednesday 26 Nov 2014 (Local Time) from KLEE Reporting Station
Light Rain Light Rain  
Wind Chill: 19°   Ceiling: 700
Heat Index: 19°   Visibility: 8mi
Dew Point: 18°   Wind: 12mph
Humidity: 96%   Direction: 310°NW
Pressure: 29.89"   Gusts: NA
Location:  28.71°N, 81.73°W
Report Text: KLEE 260853Z AUTO 31010KT 8SM -RA BKN007 OVC011 19/18 A2989 RMK AO2 CIG 004V009 PRESRR SLP121 P0002 60006 T01890183 53019
Loading
Personal Weather Stations






























Interactive Weather Map New forecast layout! Learn more

10-Day Weather Forecast

Advertisements
Track Severe Weather on mobile